createdAt,value
2022-11-20T00:02:02.836Z,4.15
2022-11-20T00:04:33.883Z,4.68
2022-11-20T00:07:05.282Z,4.63
2022-11-20T00:12:07.752Z,4.68
2022-11-20T00:14:38.827Z,3.97
2022-11-20T00:17:10.397Z,4.57
2022-11-20T00:19:41.391Z,4.27
2022-11-20T00:22:12.650Z,4.70
2022-11-20T00:24:43.756Z,4.20
2022-11-20T00:27:14.974Z,4.00
2022-11-20T00:29:46.173Z,4.20
2022-11-20T00:32:17.444Z,4.28
2022-11-20T00:34:48.493Z,4.27
2022-11-20T00:37:20.387Z,4.10
2022-11-20T00:39:51.492Z,4.40
2022-11-20T00:42:22.663Z,4.30
2022-11-20T00:44:53.957Z,6.47
2022-11-20T00:47:25.243Z,6.23
2022-11-20T00:49:56.349Z,7.03
2022-11-20T00:52:27.448Z,7.45
2022-11-20T00:54:58.691Z,8.80
2022-11-20T00:57:30.138Z,9.82
2022-11-20T01:00:01.257Z,10.85
2022-11-20T01:02:32.371Z,11.48
2022-11-20T01:05:03.460Z,11.73
2022-11-20T01:07:35.419Z,11.60
2022-11-20T01:10:06.784Z,11.13
2022-11-20T01:12:37.822Z,11.50
2022-11-20T01:15:10.393Z,11.75
2022-11-20T01:17:41.493Z,10.23
2022-11-20T01:20:13.566Z,9.60
2022-11-20T01:22:44.549Z,9.85
2022-11-20T01:25:15.844Z,10.85
2022-11-20T01:27:47.004Z,9.53
2022-11-20T01:30:18.115Z,9.75
2022-11-20T01:32:49.214Z,8.95
2022-11-20T01:35:20.660Z,8.63
2022-11-20T01:43:24.819Z,7.72
2022-11-20T01:46:06.748Z,8.18
2022-11-20T01:48:57.875Z,7.82
2022-11-20T01:51:44.724Z,7.90
2022-11-20T01:54:20.997Z,8.70
2022-11-20T01:56:56.257Z,8.52
2022-11-20T01:59:31.163Z,7.53
2022-11-20T02:02:02.421Z,8.98
2022-11-20T02:04:33.812Z,10.40
2022-11-20T02:07:07.335Z,8.57
2022-11-20T02:09:38.479Z,12.35
2022-11-20T02:12:29.453Z,11.85
2022-11-20T02:15:00.662Z,13.13
2022-11-20T02:17:32.445Z,13.20
2022-11-20T02:20:04.286Z,14.50
2022-11-20T02:22:44.762Z,13.73
2022-11-20T02:25:16.935Z,13.02
2022-11-20T02:30:19.340Z,11.25
2022-11-20T02:32:50.432Z,11.18
2022-11-20T02:35:21.535Z,12.02
2022-11-20T02:37:57.125Z,11.40
2022-11-20T02:40:29.513Z,10.52
2022-11-20T02:43:01.011Z,10.52
2022-11-20T02:45:32.353Z,10.80
2022-11-20T02:48:03.976Z,10.93
2022-11-20T02:50:35.412Z,11.27
2022-11-20T02:53:06.884Z,10.88
2022-11-20T02:55:39.066Z,9.93
2022-11-20T03:00:40.589Z,10.40
2022-11-20T03:03:12.277Z,10.15
2022-11-20T03:08:14.397Z,9.32
2022-11-20T03:10:46.064Z,9.48
2022-11-20T03:13:17.316Z,9.30
2022-11-20T03:15:49.056Z,8.80
2022-11-20T03:18:20.366Z,8.52
2022-11-20T03:20:51.866Z,8.40
2022-11-20T03:23:23.033Z,8.88
2022-11-20T03:25:54.310Z,8.50
2022-11-20T03:28:25.449Z,7.50
2022-11-20T03:30:56.568Z,7.95
2022-11-20T03:33:31.421Z,10.68
2022-11-20T03:36:07.407Z,9.57
2022-11-20T03:38:39.072Z,8.98
2022-11-20T03:41:12.705Z,9.80
2022-11-20T03:43:44.617Z,10.30
2022-11-20T03:46:16.066Z,10.27
2022-11-20T03:48:51.310Z,10.63
2022-11-20T03:51:28.982Z,10.65
2022-11-20T03:54:02.274Z,10.52
2022-11-20T03:56:35.559Z,11.88
2022-11-20T03:59:07.523Z,10.32
2022-11-20T04:01:42.128Z,10.63
2022-11-20T04:04:15.490Z,11.38
2022-11-20T04:06:46.814Z,10.90
2022-11-20T04:09:18.424Z,11.63
2022-11-20T04:11:50.183Z,11.82
2022-11-20T04:14:21.401Z,12.45
2022-11-20T04:16:52.865Z,12.00
2022-11-20T04:19:24.449Z,11.10
2022-11-20T04:21:55.899Z,11.18
2022-11-20T04:24:27.016Z,12.00
2022-11-20T04:26:58.170Z,11.27
2022-11-20T04:29:29.252Z,10.37
2022-11-20T04:32:00.614Z,10.35
2022-11-20T04:34:31.717Z,10.73
2022-11-20T04:37:04.355Z,10.30
2022-11-20T04:39:35.413Z,10.60
2022-11-20T04:42:24.587Z,9.38
2022-11-20T04:44:55.815Z,8.95
2022-11-20T04:47:27.562Z,8.77
2022-11-20T04:49:58.607Z,8.35
2022-11-20T04:52:29.896Z,8.10
2022-11-20T04:55:01.134Z,7.60
2022-11-20T04:57:32.252Z,7.53
2022-11-20T05:00:03.494Z,7.85
2022-11-20T05:02:34.687Z,8.03
2022-11-20T05:05:05.997Z,7.78
2022-11-20T05:07:38.435Z,7.27
2022-11-20T05:10:11.121Z,7.50
2022-11-20T05:15:13.227Z,6.68
2022-11-20T05:17:49.439Z,7.28
2022-11-20T05:20:21.031Z,6.15
2022-11-20T05:22:52.172Z,6.25
2022-11-20T05:25:23.242Z,6.07
2022-11-20T05:27:54.310Z,6.25
2022-11-20T05:30:25.344Z,6.53
2022-11-20T05:32:56.458Z,6.05
2022-11-20T05:35:27.543Z,6.35
2022-11-20T05:37:58.606Z,5.80
2022-11-20T05:40:29.795Z,5.40
2022-11-20T05:43:02.148Z,5.97
2022-11-20T05:45:33.220Z,5.35
2022-11-20T05:48:04.541Z,5.50
2022-11-20T05:50:35.719Z,4.93
2022-11-20T05:53:07.360Z,4.78
2022-11-20T05:55:38.611Z,4.63
2022-11-20T05:58:10.347Z,5.15
2022-11-20T06:00:41.459Z,4.20
2022-11-20T06:03:12.524Z,3.80
2022-11-20T06:05:43.575Z,4.97
2022-11-20T06:08:14.705Z,4.03
2022-11-20T06:10:46.129Z,3.77
2022-11-20T06:13:17.452Z,3.92
2022-11-20T06:15:56.242Z,4.10
2022-11-20T06:18:30.666Z,3.67
2022-11-20T06:21:06.499Z,3.67
2022-11-20T06:23:38.263Z,3.83
2022-11-20T06:26:11.866Z,3.72
2022-11-20T06:28:43.261Z,3.45
2022-11-20T06:31:16.686Z,3.80
2022-11-20T06:33:48.451Z,2.97
2022-11-20T06:36:21.637Z,3.05
2022-11-20T06:38:53.524Z,3.15
2022-11-20T06:41:25.726Z,3.13
2022-11-20T06:43:57.658Z,2.72
2022-11-20T06:46:28.730Z,2.70
2022-11-20T06:49:00.842Z,2.80
2022-11-20T06:51:32.306Z,3.20
2022-11-20T06:54:03.466Z,2.38
2022-11-20T06:56:34.919Z,2.53
2022-11-20T06:59:10.555Z,2.40
2022-11-20T07:01:41.680Z,2.42
2022-11-20T07:04:12.971Z,2.28
2022-11-20T07:06:44.036Z,2.50
2022-11-20T07:09:15.452Z,2.55
2022-11-20T07:11:46.642Z,2.40
2022-11-20T07:14:17.755Z,2.70
2022-11-20T07:16:49.041Z,2.33
2022-11-20T07:19:21.123Z,2.20
2022-11-20T07:22:01.084Z,2.25
2022-11-20T07:24:32.817Z,2.30
2022-11-20T07:29:35.125Z,2.35
2022-11-20T07:32:07.796Z,2.47
2022-11-20T07:34:39.511Z,2.00
2022-11-20T07:37:10.712Z,2.50
2022-11-20T07:39:41.915Z,2.22
2022-11-20T07:42:14.580Z,2.13
2022-11-20T07:44:46.181Z,2.40
2022-11-20T07:47:17.348Z,2.00
2022-11-20T07:49:48.449Z,1.85
2022-11-20T07:52:19.632Z,2.38
2022-11-20T07:54:51.098Z,2.27
2022-11-20T07:57:25.650Z,1.60
2022-11-20T07:59:59.387Z,1.95
2022-11-20T08:02:30.552Z,2.15
2022-11-20T08:05:01.670Z,1.92
2022-11-20T08:07:37.699Z,2.15
2022-11-20T08:10:10.273Z,2.00
2022-11-20T08:13:10.582Z,1.80
2022-11-20T08:15:43.030Z,2.00
2022-11-20T08:18:32.246Z,2.22
2022-11-20T08:21:07.628Z,2.00
2022-11-20T08:23:38.749Z,2.20
2022-11-20T08:26:09.933Z,2.03
2022-11-20T08:28:41.085Z,2.03
2022-11-20T08:31:12.416Z,2.10
2022-11-20T08:33:43.555Z,1.83
2022-11-20T08:36:14.955Z,2.25
2022-11-20T08:38:50.761Z,2.10
2022-11-20T08:41:29.389Z,2.35
2022-11-20T08:44:03.945Z,2.25
2022-11-20T08:46:39.366Z,2.30
2022-11-20T08:49:13.321Z,2.00
2022-11-20T08:51:45.379Z,2.53
2022-11-20T08:54:16.866Z,2.38
2022-11-20T08:56:48.066Z,2.45
2022-11-20T08:59:36.881Z,2.50
2022-11-20T09:02:11.485Z,2.22
2022-11-20T09:04:42.650Z,2.47
2022-11-20T09:07:14.104Z,1.98
2022-11-20T09:09:46.420Z,1.75
2022-11-20T09:12:17.734Z,2.20
2022-11-20T09:14:54.766Z,2.20
2022-11-20T09:17:26.411Z,2.42
2022-11-20T09:19:57.558Z,2.42
2022-11-20T09:22:28.850Z,2.97
2022-11-20T09:25:00.118Z,2.77
2022-11-20T09:27:31.762Z,2.58
2022-11-20T09:30:02.942Z,3.08
2022-11-20T09:32:34.078Z,3.60
2022-11-20T09:35:05.358Z,3.33
2022-11-20T09:37:36.581Z,3.67
2022-11-20T09:40:08.307Z,3.47
2022-11-20T09:42:48.697Z,4.65
2022-11-20T09:45:25.752Z,5.15
2022-11-20T09:48:21.166Z,4.50
2022-11-20T09:50:57.531Z,6.85
2022-11-20T09:53:49.797Z,6.78
2022-11-20T09:56:23.328Z,6.65
2022-11-20T09:58:58.271Z,6.82
2022-11-20T10:01:34.851Z,7.22
2022-11-20T10:04:07.669Z,7.32
2022-11-20T10:07:10.450Z,7.00
2022-11-20T10:09:56.256Z,6.65
2022-11-20T10:13:08.396Z,13.63
2022-11-20T10:15:48.438Z,14.68
2022-11-20T10:18:45.041Z,10.90
2022-11-20T10:21:28.391Z,11.80
2022-11-20T10:24:08.692Z,9.65
2022-11-20T10:27:05.640Z,8.77
2022-11-20T10:29:39.548Z,8.77
2022-11-20T10:32:29.761Z,8.70
2022-11-20T10:35:21.174Z,6.93
2022-11-20T10:38:07.924Z,7.10
2022-11-20T10:40:43.850Z,7.78
2022-11-20T10:43:32.949Z,6.88
2022-11-20T10:46:17.812Z,6.97
2022-11-20T10:48:50.417Z,6.30
2022-11-20T10:51:33.410Z,6.43
2022-11-20T10:54:35.633Z,6.18
2022-11-20T10:57:24.140Z,6.40
2022-11-20T11:00:04.959Z,5.75
2022-11-20T11:02:50.442Z,6.13
2022-11-20T11:05:41.531Z,4.97
2022-11-20T11:08:18.998Z,6.15
2022-11-20T11:10:59.324Z,5.40
2022-11-20T11:13:33.094Z,5.68
2022-11-20T11:16:05.843Z,5.82
2022-11-20T11:18:38.357Z,5.63
2022-11-20T11:21:09.793Z,5.07
2022-11-20T11:23:46.261Z,5.80
2022-11-20T11:26:26.194Z,6.28
2022-11-20T11:29:06.571Z,6.03
2022-11-20T11:31:38.412Z,5.35
2022-11-20T11:34:11.361Z,4.90
2022-11-20T11:36:44.082Z,5.47
2022-11-20T11:39:19.068Z,5.20
2022-11-20T11:41:51.670Z,5.13
2022-11-20T11:44:44.026Z,5.07
2022-11-20T11:47:24.164Z,4.80
2022-11-20T11:50:06.347Z,4.72
2022-11-20T11:53:00.328Z,5.57
2022-11-20T11:55:57.304Z,4.80
2022-11-20T11:58:28.626Z,4.25
2022-11-20T12:01:15.020Z,4.68
2022-11-20T12:03:55.524Z,5.15
2022-11-20T12:06:28.174Z,4.82
2022-11-20T12:09:11.089Z,4.65
2022-11-20T12:11:42.245Z,5.13
2022-11-20T12:14:42.144Z,5.77
2022-11-20T12:17:17.744Z,5.55
2022-11-20T12:19:49.270Z,5.43
2022-11-20T12:22:27.613Z,6.77
2022-11-20T12:25:11.685Z,5.78
2022-11-20T12:28:01.739Z,6.03
2022-11-20T12:30:41.270Z,6.65
2022-11-20T12:33:41.585Z,6.47
2022-11-20T12:36:23.918Z,6.93
2022-11-20T12:39:11.303Z,6.32
2022-11-20T12:42:06.748Z,5.78
2022-11-20T12:45:15.082Z,5.90
2022-11-20T12:47:52.239Z,5.15
2022-11-20T12:51:13.361Z,5.70
2022-11-20T12:53:46.909Z,5.72
2022-11-20T12:56:30.403Z,5.30
2022-11-20T12:59:03.890Z,5.15
2022-11-20T13:01:44.956Z,5.40
2022-11-20T13:04:42.302Z,5.07
2022-11-20T13:07:17.041Z,4.57
2022-11-20T13:09:53.402Z,4.93
2022-11-20T13:12:42.788Z,4.50
2022-11-20T13:15:23.079Z,4.35
2022-11-20T13:17:58.568Z,5.05
2022-11-20T13:20:30.980Z,4.68
2022-11-20T13:23:02.853Z,4.40
2022-11-20T13:25:40.433Z,4.80
2022-11-20T13:28:14.868Z,4.47
2022-11-20T13:30:55.133Z,4.75
2022-11-20T13:33:36.351Z,4.82
2022-11-20T13:36:22.788Z,4.75
2022-11-20T13:38:57.427Z,4.55
2022-11-20T13:41:37.624Z,4.38
2022-11-20T13:44:17.013Z,4.50
2022-11-20T13:46:49.950Z,5.07
2022-11-20T13:49:34.369Z,4.43
2022-11-20T13:52:42.028Z,4.93
2022-11-20T13:55:22.399Z,4.53
2022-11-20T13:58:06.279Z,4.97
2022-11-20T14:00:48.040Z,4.25
2022-11-20T14:03:58.492Z,4.07
2022-11-20T14:06:48.421Z,4.30
2022-11-20T14:09:34.826Z,4.23
2022-11-20T14:12:17.076Z,5.10
2022-11-20T14:14:56.985Z,4.60
2022-11-20T14:17:35.500Z,4.60
2022-11-20T14:20:17.361Z,4.25
2022-11-20T14:22:55.710Z,4.03
2022-11-20T14:25:33.440Z,4.25
2022-11-20T14:28:07.130Z,5.43
2022-11-20T14:30:51.311Z,3.92
2022-11-20T14:33:27.232Z,4.10
2022-11-20T14:36:00.991Z,3.70
2022-11-20T14:38:35.409Z,3.35
2022-11-20T14:41:24.090Z,4.00
2022-11-20T14:44:02.905Z,3.17
2022-11-20T14:46:36.080Z,3.58
2022-11-20T14:49:08.238Z,3.47
2022-11-20T14:54:26.469Z,2.90
2022-11-20T14:56:58.708Z,3.35
2022-11-20T14:59:33.318Z,3.30
2022-11-20T15:02:12.108Z,3.85
2022-11-20T15:04:53.688Z,3.13
2022-11-20T15:07:30.606Z,3.03
2022-11-20T15:10:08.737Z,3.40
2022-11-20T15:12:48.889Z,2.63
2022-11-20T15:15:33.388Z,2.97
2022-11-20T15:18:05.136Z,2.60
2022-11-20T15:20:38.914Z,2.92
2022-11-20T15:23:23.749Z,2.90
2022-11-20T15:25:54.883Z,2.70
2022-11-20T15:28:35.213Z,2.90
2022-11-20T15:31:07.336Z,2.55
2022-11-20T15:33:39.014Z,2.83
2022-11-20T15:36:10.726Z,2.97
2022-11-20T15:38:41.989Z,2.53
2022-11-20T15:41:13.855Z,2.80
2022-11-20T15:43:45.067Z,2.40
2022-11-20T15:46:26.919Z,2.30
2022-11-20T15:48:59.894Z,2.17
2022-11-20T15:51:36.926Z,2.38
2022-11-20T15:54:23.466Z,2.22
2022-11-20T15:56:55.251Z,2.15
2022-11-20T15:59:26.390Z,2.07
2022-11-20T16:01:58.164Z,2.63
2022-11-20T16:04:29.327Z,2.95
2022-11-20T16:07:01.182Z,2.70
2022-11-20T16:09:32.222Z,2.33
2022-11-20T16:12:04.153Z,2.17
2022-11-20T16:14:53.515Z,2.13
2022-11-20T16:17:44.246Z,2.13
2022-11-20T16:20:15.567Z,2.58
2022-11-20T16:22:47.026Z,2.58
2022-11-20T16:25:18.418Z,1.65
2022-11-20T16:27:49.717Z,1.90
2022-11-20T16:30:21.102Z,1.73
2022-11-20T16:32:52.311Z,1.88
2022-11-20T16:35:23.520Z,1.92
2022-11-20T16:37:54.591Z,2.10
2022-11-20T16:40:26.485Z,1.80
2022-11-20T16:42:59.427Z,2.00
2022-11-20T16:45:33.944Z,1.52
2022-11-20T16:48:05.269Z,1.50
2022-11-20T16:50:36.897Z,1.67
2022-11-20T16:53:10.579Z,1.60
2022-11-20T16:55:41.694Z,1.80
2022-11-20T16:58:12.844Z,1.80
2022-11-20T17:00:49.988Z,1.83
2022-11-20T17:03:22.764Z,1.42
2022-11-20T17:05:53.875Z,1.70
2022-11-20T17:08:25.032Z,1.55
2022-11-20T17:10:56.567Z,1.67
2022-11-20T17:13:27.688Z,1.67
2022-11-20T17:16:08.132Z,1.73
2022-11-20T17:18:39.557Z,1.45
2022-11-20T17:21:10.642Z,1.50
2022-11-20T17:23:46.175Z,1.40
2022-11-20T17:26:24.164Z,1.63
2022-11-20T17:28:58.638Z,1.35
2022-11-20T17:31:31.133Z,1.55
2022-11-20T17:34:03.785Z,1.63
2022-11-20T17:36:35.889Z,1.55
2022-11-20T17:39:08.058Z,1.50
2022-11-20T17:41:39.227Z,1.50
2022-11-20T17:44:13.248Z,1.42
2022-11-20T17:46:44.329Z,1.33
2022-11-20T17:49:17.868Z,1.67
2022-11-20T17:51:52.563Z,1.17
2022-11-20T17:54:23.914Z,1.63
2022-11-20T17:57:13.958Z,1.73
2022-11-20T17:59:45.078Z,1.23
2022-11-20T18:02:16.168Z,1.38
2022-11-20T18:04:47.292Z,1.40
2022-11-20T18:07:18.465Z,1.33
2022-11-20T18:09:49.541Z,1.33
2022-11-20T18:12:20.865Z,1.40
2022-11-20T18:14:51.930Z,1.25
2022-11-20T18:17:23.161Z,1.33
2022-11-20T18:20:14.180Z,1.30
2022-11-20T18:22:45.577Z,1.60
2022-11-20T18:25:17.069Z,1.35
2022-11-20T18:27:48.170Z,1.27
2022-11-20T18:30:19.253Z,1.38
2022-11-20T18:32:51.567Z,1.30
2022-11-20T18:37:54.217Z,1.13
2022-11-20T18:40:25.337Z,1.48
2022-11-20T18:43:14.656Z,1.08
2022-11-20T18:45:45.910Z,1.23
2022-11-20T18:48:17.126Z,1.20
2022-11-20T18:50:48.185Z,1.00
2022-11-20T18:53:19.385Z,1.02
2022-11-20T18:55:50.831Z,0.90
2022-11-20T18:58:21.855Z,1.40
2022-11-20T19:00:52.975Z,0.88
2022-11-20T19:03:24.107Z,1.00
2022-11-20T19:05:55.764Z,1.10
2022-11-20T19:08:26.812Z,1.02
2022-11-20T19:11:07.124Z,1.05
2022-11-20T19:13:39.608Z,1.33
2022-11-20T19:18:49.823Z,0.93
2022-11-20T19:21:23.867Z,1.20
2022-11-20T19:23:57.074Z,1.08
2022-11-20T19:26:28.487Z,1.10
2022-11-20T19:29:00.169Z,1.07
2022-11-20T19:31:31.396Z,0.88
2022-11-20T19:34:05.267Z,1.08
2022-11-20T19:36:43.209Z,1.15
2022-11-20T19:39:15.705Z,1.10
2022-11-20T19:41:46.883Z,1.05
2022-11-20T19:44:21.208Z,0.95
2022-11-20T19:46:52.424Z,1.10
2022-11-20T19:49:23.689Z,1.08
2022-11-20T19:51:55.161Z,1.40
2022-11-20T19:54:26.538Z,1.02
2022-11-20T19:56:58.321Z,0.73
2022-11-20T19:59:29.974Z,0.77
2022-11-20T20:02:03.560Z,1.38
2022-11-20T20:04:34.616Z,1.13
2022-11-20T20:07:07.618Z,0.90
2022-11-20T20:09:39.105Z,1.33
2022-11-20T20:12:10.215Z,1.33
2022-11-20T20:14:41.707Z,0.90
2022-11-20T20:17:12.750Z,1.20
2022-11-20T20:19:43.806Z,1.05
2022-11-20T20:22:14.795Z,0.88
2022-11-20T20:24:46.169Z,1.42
2022-11-20T20:27:17.253Z,1.10
2022-11-20T20:29:48.344Z,0.98
2022-11-20T20:32:19.581Z,1.30
2022-11-20T20:34:50.980Z,1.10
2022-11-20T20:37:21.997Z,1.05
2022-11-20T20:39:53.344Z,1.17
2022-11-20T20:42:25.106Z,1.17
2022-11-20T20:45:08.115Z,1.02
2022-11-20T20:47:41.084Z,1.00
2022-11-20T20:50:14.728Z,1.73
2022-11-20T20:52:46.225Z,1.40
2022-11-20T20:55:17.353Z,1.00
2022-11-20T20:57:48.530Z,1.13
2022-11-20T21:00:19.708Z,0.85
2022-11-20T21:02:50.751Z,1.23
2022-11-20T21:05:22.088Z,0.90
2022-11-20T21:08:11.288Z,0.90
2022-11-20T21:10:42.756Z,1.00
2022-11-20T21:13:13.957Z,0.82
2022-11-20T21:15:47.994Z,1.00
2022-11-20T21:18:21.107Z,1.98
2022-11-20T21:21:10.390Z,0.68
2022-11-20T21:23:43.475Z,0.73
2022-11-20T21:26:15.764Z,1.25
2022-11-20T21:28:46.862Z,1.20
2022-11-20T21:31:23.296Z,1.20
2022-11-20T21:33:55.898Z,0.90
2022-11-20T21:36:29.730Z,0.95
2022-11-20T21:39:02.425Z,0.90
2022-11-20T21:41:34.264Z,1.00
2022-11-20T21:44:41.506Z,0.90
2022-11-20T21:46:58.010Z,0.85
2022-11-20T21:49:29.255Z,1.10
2022-11-20T21:52:00.468Z,1.10
2022-11-20T21:54:32.729Z,1.00
2022-11-20T21:57:03.865Z,1.10
2022-11-20T21:59:35.153Z,0.93
2022-11-20T22:02:06.400Z,1.13
2022-11-20T22:04:37.743Z,0.95
2022-11-20T22:07:09.535Z,0.88
2022-11-20T22:09:40.756Z,1.00
2022-11-20T22:12:11.770Z,0.60
2022-11-20T22:14:42.827Z,1.20
2022-11-20T22:17:16.766Z,1.10
2022-11-20T22:19:47.879Z,1.05
2022-11-20T22:22:18.953Z,1.42
2022-11-20T22:24:50.262Z,1.27
2022-11-20T22:27:21.571Z,1.05
2022-11-20T22:29:53.197Z,1.13
2022-11-20T22:32:24.317Z,1.10
2022-11-20T22:34:55.356Z,1.40
2022-11-20T22:37:26.348Z,1.60
2022-11-20T22:39:57.458Z,1.25
2022-11-20T22:42:28.756Z,1.20
2022-11-20T22:45:00.652Z,1.60
2022-11-20T22:47:31.809Z,1.60
2022-11-20T22:50:02.841Z,1.42
2022-11-20T22:52:34.683Z,1.53
2022-11-20T22:55:06.053Z,1.43
2022-11-20T22:57:37.323Z,1.75
2022-11-20T23:00:09.788Z,1.40
2022-11-20T23:02:48.572Z,1.45
2022-11-20T23:05:19.653Z,2.15
2022-11-20T23:07:50.813Z,2.53
2022-11-20T23:10:22.317Z,2.90
2022-11-20T23:12:53.817Z,3.97
2022-11-20T23:15:24.860Z,4.38
2022-11-20T23:17:56.550Z,4.97
2022-11-20T23:20:27.608Z,5.82
2022-11-20T23:22:58.823Z,5.85
2022-11-20T23:25:29.930Z,6.07
2022-11-20T23:28:00.995Z,6.32
2022-11-20T23:30:32.288Z,7.15
2022-11-20T23:33:04.040Z,6.68
2022-11-20T23:35:39.845Z,7.15
2022-11-20T23:38:10.870Z,7.55
2022-11-20T23:40:42.158Z,33.58
2022-11-20T23:43:19.357Z,65.23
2022-11-20T23:45:52.775Z,82.72
2022-11-20T23:48:28.491Z,77.32
2022-11-20T23:51:00.159Z,56.38
2022-11-20T23:53:31.856Z,37.35
2022-11-20T23:56:06.190Z,37.67
2022-11-20T23:58:39.247Z,32.95
